createdAt,value
2018-12-08T00:00:21.279Z,19.43
2018-12-08T00:02:53.884Z,18.40
2018-12-08T00:05:26.992Z,18.60
2018-12-08T00:07:59.167Z,20.60
2018-12-08T00:10:30.822Z,20.87
2018-12-08T00:13:02.709Z,19.33
2018-12-08T00:15:34.508Z,18.03
2018-12-08T00:18:06.825Z,17.17
2018-12-08T00:20:38.936Z,18.60
2018-12-08T00:23:11.214Z,16.80
2018-12-08T00:25:43.376Z,14.43
2018-12-08T00:28:15.398Z,15.87
2018-12-08T00:31:03.538Z,16.60
2018-12-08T00:33:35.458Z,17.20
2018-12-08T00:36:07.722Z,18.10
2018-12-08T00:38:40.158Z,17.70
2018-12-08T00:41:12.131Z,16.00
2018-12-08T00:43:44.094Z,17.43
2018-12-08T00:46:16.401Z,15.97
2018-12-08T00:48:48.515Z,15.97
2018-12-08T00:51:21.548Z,17.40
2018-12-08T00:53:53.499Z,17.80
2018-12-08T00:56:25.527Z,18.37
2018-12-08T00:58:58.552Z,21.07
2018-12-08T01:01:30.657Z,19.20
2018-12-08T01:04:02.548Z,20.00
2018-12-08T01:06:34.859Z,18.87
2018-12-08T01:09:09.829Z,17.07
2018-12-08T01:11:42.187Z,18.37
2018-12-08T01:14:15.002Z,17.30
2018-12-08T01:16:47.683Z,18.00
2018-12-08T01:19:19.878Z,16.97
2018-12-08T01:21:52.035Z,16.67
2018-12-08T01:24:24.158Z,16.33
2018-12-08T01:26:56.172Z,15.33
2018-12-08T01:29:28.457Z,16.23
2018-12-08T01:32:00.599Z,16.53
2018-12-08T01:34:32.721Z,16.10
2018-12-08T01:37:04.545Z,17.33
2018-12-08T01:39:36.915Z,16.70
2018-12-08T01:42:08.846Z,17.83
2018-12-08T01:44:40.961Z,18.90
2018-12-08T01:47:13.305Z,22.03
2018-12-08T01:49:45.309Z,24.10
2018-12-08T01:52:17.388Z,19.47
2018-12-08T01:54:49.588Z,18.97
2018-12-08T01:57:21.866Z,26.50
2018-12-08T01:59:53.606Z,22.43
2018-12-08T02:02:25.469Z,20.67
2018-12-08T02:04:57.348Z,19.30
2018-12-08T02:07:29.533Z,18.23
2018-12-08T02:10:01.853Z,18.00
2018-12-08T02:12:33.811Z,17.57
2018-12-08T02:15:06.086Z,18.47
2018-12-08T02:17:38.167Z,18.93
2018-12-08T02:20:10.453Z,19.33
2018-12-08T02:22:43.137Z,20.13
2018-12-08T02:25:15.293Z,19.63
2018-12-08T02:27:48.265Z,20.33
2018-12-08T02:30:21.077Z,20.60
2018-12-08T02:33:06.924Z,19.77
2018-12-08T02:35:39.650Z,19.87
2018-12-08T02:38:12.275Z,20.63
2018-12-08T02:40:45.104Z,21.80
2018-12-08T02:43:17.590Z,19.53
2018-12-08T02:45:49.556Z,19.33
2018-12-08T02:48:21.596Z,20.23
2018-12-08T02:50:53.829Z,20.17
2018-12-08T02:53:25.784Z,20.80
2018-12-08T02:55:57.891Z,22.60
2018-12-08T02:58:30.145Z,19.93
2018-12-08T03:01:02.473Z,17.80
2018-12-08T03:03:34.435Z,19.30
2018-12-08T03:06:07.282Z,20.50
2018-12-08T03:08:39.729Z,21.00
2018-12-08T03:11:11.751Z,18.80
2018-12-08T03:13:43.686Z,20.17
2018-12-08T03:19:20.403Z,19.90
2018-12-08T03:29:12.294Z,21.73
2018-12-08T03:31:44.609Z,18.77
2018-12-08T03:34:17.403Z,20.73
2018-12-08T03:37:16.827Z,20.40
2018-12-08T03:40:09.906Z,21.27
2018-12-08T03:42:42.048Z,21.83
2018-12-08T03:45:14.090Z,22.37
2018-12-08T03:47:45.985Z,23.07
2018-12-08T03:50:18.874Z,26.47
2018-12-08T03:52:54.921Z,28.00
2018-12-08T03:55:33.895Z,25.67
2018-12-08T03:58:05.917Z,27.37
2018-12-08T04:00:41.730Z,26.07
2018-12-08T04:03:13.772Z,26.27
2018-12-08T04:05:46.019Z,24.93
2018-12-08T04:08:20.895Z,24.43
2018-12-08T04:10:54.248Z,24.07
2018-12-08T04:13:26.524Z,24.60
2018-12-08T04:15:58.465Z,24.70
2018-12-08T04:18:36.112Z,32.03
2018-12-08T04:21:14.293Z,31.17
2018-12-08T04:23:47.153Z,27.50
2018-12-08T04:26:19.873Z,27.13
2018-12-08T04:28:51.985Z,27.90
2018-12-08T04:31:24.824Z,28.20
2018-12-08T04:33:57.803Z,30.07
2018-12-08T04:36:31.019Z,29.63
2018-12-08T04:39:02.777Z,27.37
2018-12-08T04:41:35.273Z,26.97
2018-12-08T04:44:08.496Z,26.93
2018-12-08T04:46:40.888Z,27.37
2018-12-08T04:49:13.205Z,24.77
2018-12-08T04:51:45.245Z,25.73
2018-12-08T04:54:16.774Z,26.00
2018-12-08T04:56:49.397Z,25.47
2018-12-08T04:59:21.564Z,24.93
2018-12-08T05:01:53.471Z,27.27
2018-12-08T05:04:33.443Z,30.53
2018-12-08T05:07:05.400Z,26.17
2018-12-08T05:09:39.514Z,30.83
2018-12-08T05:12:11.894Z,30.33
2018-12-08T05:14:43.971Z,31.90
2018-12-08T05:17:16.255Z,26.40
2018-12-08T05:19:48.337Z,27.67
2018-12-08T05:22:20.286Z,28.37
2018-12-08T05:24:52.791Z,28.57
2018-12-08T05:27:25.914Z,29.33
2018-12-08T05:29:59.393Z,26.47
2018-12-08T05:32:31.824Z,29.07
2018-12-08T05:35:05.786Z,29.67
2018-12-08T05:37:45.830Z,26.73
2018-12-08T05:40:17.834Z,27.43
2018-12-08T05:42:50.083Z,32.27
2018-12-08T05:48:01.229Z,33.77
2018-12-08T05:50:33.706Z,32.43
2018-12-08T05:53:06.997Z,35.83
2018-12-08T05:55:41.184Z,30.87
2018-12-08T05:58:14.631Z,37.10
2018-12-08T06:00:46.982Z,36.80
2018-12-08T06:03:19.653Z,36.93
2018-12-08T06:05:52.256Z,44.67
2018-12-08T06:08:24.714Z,36.83
2018-12-08T06:10:56.779Z,29.90
2018-12-08T06:13:28.985Z,36.47
2018-12-08T06:16:01.379Z,40.70
2018-12-08T06:18:33.730Z,44.43
2018-12-08T06:21:06.566Z,37.83
2018-12-08T06:23:40.291Z,44.50
2018-12-08T06:26:20.845Z,38.53
2018-12-08T06:28:57.733Z,39.13
2018-12-08T06:31:29.994Z,34.67
2018-12-08T06:34:02.435Z,37.87
2018-12-08T06:36:34.773Z,38.67
2018-12-08T06:39:07.763Z,36.30
2018-12-08T06:41:40.402Z,37.87
2018-12-08T06:44:13.223Z,35.90
2018-12-08T06:46:46.178Z,35.67
2018-12-08T06:49:19.033Z,39.90
2018-12-08T06:51:51.513Z,37.07
2018-12-08T06:54:23.983Z,39.10
2018-12-08T06:56:57.219Z,38.53
2018-12-08T06:59:30.318Z,50.50
2018-12-08T07:02:02.753Z,45.90
2018-12-08T07:04:36.392Z,56.90
2018-12-08T07:07:08.789Z,54.90
2018-12-08T07:09:41.573Z,62.23
2018-12-08T07:12:13.772Z,247.37
2018-12-08T07:14:46.587Z,127.20
2018-12-08T07:17:19.154Z,90.60
2018-12-08T07:19:51.676Z,66.43
2018-12-08T07:22:24.262Z,60.83
2018-12-08T07:24:56.549Z,55.60
2018-12-08T07:27:29.394Z,47.60
2018-12-08T07:30:03.962Z,53.60
2018-12-08T07:32:38.908Z,48.77
2018-12-08T07:35:21.473Z,47.50
2018-12-08T07:37:59.613Z,54.90
2018-12-08T07:40:31.806Z,51.93
2018-12-08T07:43:05.350Z,54.37
2018-12-08T07:45:38.390Z,61.10
2018-12-08T07:48:11.576Z,58.97
2018-12-08T07:50:44.200Z,58.80
2018-12-08T07:53:16.645Z,53.47
2018-12-08T07:55:49.368Z,56.43
2018-12-08T07:58:22.329Z,63.60
2018-12-08T08:00:54.619Z,53.93
2018-12-08T08:03:26.942Z,55.80
2018-12-08T08:05:59.937Z,53.30
2018-12-08T08:08:32.495Z,49.93
2018-12-08T08:11:04.835Z,57.87
2018-12-08T08:13:37.408Z,58.77
2018-12-08T08:16:09.837Z,53.43
2018-12-08T08:18:42.161Z,54.23
2018-12-08T08:21:14.208Z,57.97
2018-12-08T08:23:46.866Z,58.77
2018-12-08T08:26:19.418Z,61.90
2018-12-08T08:28:53.752Z,56.37
2018-12-08T08:31:26.744Z,57.93
2018-12-08T08:34:00.634Z,58.40
2018-12-08T08:36:35.548Z,66.53
2018-12-08T08:39:10.396Z,67.57
2018-12-08T08:41:42.558Z,66.77
2018-12-08T08:44:15.586Z,72.07
2018-12-08T08:46:49.354Z,76.90
2018-12-08T08:49:22.028Z,77.87
2018-12-08T08:51:55.503Z,77.90
2018-12-08T08:54:30.664Z,76.90
2018-12-08T08:57:04.394Z,73.70
2018-12-08T08:59:37.177Z,76.63
2018-12-08T09:02:11.289Z,84.63
2018-12-08T09:04:44.676Z,76.47
2018-12-08T09:07:17.198Z,72.40
2018-12-08T09:09:51.170Z,78.73
2018-12-08T09:12:23.565Z,74.50
2018-12-08T09:14:56.433Z,71.13
2018-12-08T09:17:29.982Z,61.47
2018-12-08T09:20:03.739Z,64.27
2018-12-08T09:22:38.315Z,62.53
2018-12-08T09:25:13.627Z,61.23
2018-12-08T09:27:47.132Z,51.40
2018-12-08T09:30:20.553Z,57.47
2018-12-08T09:32:53.379Z,65.90
2018-12-08T09:35:27.133Z,67.87
2018-12-08T09:38:00.174Z,67.10
2018-12-08T09:40:35.541Z,68.67
2018-12-08T09:43:09.192Z,70.17
2018-12-08T09:45:42.235Z,71.57
2018-12-08T09:48:15.322Z,70.40
2018-12-08T09:50:47.900Z,72.13
2018-12-08T09:53:22.369Z,66.73
2018-12-08T09:55:57.616Z,65.30
2018-12-08T09:58:30.977Z,80.43
2018-12-08T10:01:04.011Z,66.97
2018-12-08T10:03:37.600Z,70.47
2018-12-08T10:06:10.951Z,67.90
2018-12-08T10:08:43.319Z,68.40
2018-12-08T10:11:18.011Z,75.17
2018-12-08T10:13:51.833Z,76.13
2018-12-08T10:16:25.864Z,81.00
2018-12-08T10:19:01.538Z,77.03
2018-12-08T10:21:41.583Z,73.17
2018-12-08T10:24:17.049Z,89.00
2018-12-08T10:26:50.351Z,83.27
2018-12-08T10:29:22.865Z,84.63
2018-12-08T10:31:56.674Z,88.30
2018-12-08T10:34:30.263Z,95.53
2018-12-08T10:38:06.532Z,105.10
2018-12-08T10:40:40.614Z,105.40
2018-12-08T10:43:14.212Z,102.30
2018-12-08T10:45:46.969Z,115.20
2018-12-08T10:48:20.577Z,114.93
2018-12-08T10:50:53.894Z,103.13
2018-12-08T10:53:27.843Z,97.13
2018-12-08T10:56:01.254Z,93.93
2018-12-08T10:58:34.445Z,92.17
2018-12-08T11:01:11.900Z,89.60
2018-12-08T11:03:52.358Z,99.20
2018-12-08T11:06:24.896Z,91.10
2018-12-08T11:08:58.422Z,78.20
2018-12-08T11:11:32.413Z,70.70
2018-12-08T11:14:05.420Z,84.47
2018-12-08T11:16:39.504Z,65.00
2018-12-08T11:19:12.408Z,67.83
2018-12-08T11:21:45.660Z,67.27
2018-12-08T11:24:19.431Z,59.30
2018-12-08T11:26:53.909Z,54.47
2018-12-08T11:29:27.090Z,60.17
2018-12-08T11:32:00.727Z,54.07
2018-12-08T11:34:33.853Z,55.90
2018-12-08T11:37:06.961Z,59.10
2018-12-08T11:39:40.825Z,52.63
2018-12-08T11:42:14.978Z,48.07
2018-12-08T11:44:48.804Z,45.10
2018-12-08T11:47:24.530Z,70.37
2018-12-08T11:49:57.737Z,55.13
2018-12-08T11:52:32.873Z,52.70
2018-12-08T11:55:06.255Z,52.80
2018-12-08T11:57:40.343Z,51.90
2018-12-08T12:00:16.097Z,50.20
2018-12-08T12:02:50.249Z,47.50
2018-12-08T12:05:25.801Z,47.60
2018-12-08T12:07:58.670Z,54.23
2018-12-08T12:10:34.012Z,56.03
2018-12-08T12:13:07.663Z,59.90
2018-12-08T12:15:42.287Z,64.07
2018-12-08T12:18:17.135Z,79.00
2018-12-08T12:20:50.578Z,78.07
2018-12-08T12:23:24.212Z,63.90
2018-12-08T12:25:57.113Z,58.17
2018-12-08T12:28:31.703Z,58.00
2018-12-08T12:31:04.825Z,55.67
2018-12-08T12:33:39.397Z,61.07
2018-12-08T12:36:12.769Z,62.00
2018-12-08T12:38:46.318Z,59.53
2018-12-08T12:41:19.895Z,56.43
2018-12-08T12:43:52.973Z,56.97
2018-12-08T12:46:27.153Z,62.47
2018-12-08T12:49:03.037Z,64.67
2018-12-08T12:51:36.401Z,61.00
2018-12-08T12:54:09.662Z,59.23
2018-12-08T12:56:43.114Z,57.57
2018-12-08T12:59:16.163Z,60.10
2018-12-08T13:01:49.812Z,58.63
2018-12-08T13:04:21.986Z,58.30
2018-12-08T13:06:55.552Z,61.13
2018-12-08T13:09:28.229Z,65.77
2018-12-08T13:12:02.295Z,76.80
2018-12-08T13:14:35.034Z,78.40
2018-12-08T13:17:07.631Z,74.63
2018-12-08T13:19:40.772Z,84.30
2018-12-08T13:22:14.772Z,81.57
2018-12-08T13:24:48.107Z,79.17
2018-12-08T13:27:21.554Z,69.07
2018-12-08T13:29:54.541Z,73.60
2018-12-08T13:32:28.078Z,69.53
2018-12-08T13:35:01.664Z,76.30
2018-12-08T13:37:35.326Z,81.37
2018-12-08T13:40:08.537Z,83.23
2018-12-08T13:42:43.164Z,79.83
2018-12-08T13:45:20.940Z,85.97
2018-12-08T13:47:54.534Z,78.00
2018-12-08T13:50:27.339Z,74.17
2018-12-08T13:53:01.151Z,76.50
2018-12-08T13:55:38.898Z,81.10
2018-12-08T13:58:11.656Z,86.33
2018-12-08T14:00:46.211Z,84.00
2018-12-08T14:03:19.876Z,81.63
2018-12-08T14:05:53.927Z,90.33
2018-12-08T14:08:27.970Z,80.13
2018-12-08T14:11:02.139Z,76.97
2018-12-08T14:13:36.546Z,91.00
2018-12-08T14:16:10.768Z,94.73
2018-12-08T14:18:44.671Z,89.90
2018-12-08T14:21:19.530Z,85.77
2018-12-08T14:23:54.885Z,86.77
2018-12-08T14:26:30.265Z,75.83
2018-12-08T14:29:03.622Z,71.47
2018-12-08T14:31:37.385Z,79.70
2018-12-08T14:34:14.616Z,73.50
2018-12-08T14:36:50.778Z,76.60
2018-12-08T14:39:26.924Z,78.60
2018-12-08T14:42:00.945Z,72.33
2018-12-08T14:44:38.378Z,85.23
2018-12-08T14:47:12.870Z,78.33
2018-12-08T14:49:52.180Z,84.67
2018-12-08T14:52:29.291Z,85.37
2018-12-08T14:55:02.406Z,89.13
2018-12-08T14:57:36.082Z,85.93
2018-12-08T15:00:14.723Z,84.47
2018-12-08T15:02:51.171Z,87.23
2018-12-08T15:05:32.660Z,81.60
2018-12-08T15:08:07.201Z,80.17
2018-12-08T15:10:43.699Z,82.10
2018-12-08T15:13:20.656Z,85.30
2018-12-08T15:15:57.113Z,79.60
2018-12-08T15:18:30.495Z,84.03
2018-12-08T15:21:07.189Z,88.50
2018-12-08T15:23:44.608Z,85.50
2018-12-08T15:26:18.598Z,79.13
2018-12-08T15:28:53.014Z,81.50
2018-12-08T15:31:27.792Z,78.40
2018-12-08T15:34:02.704Z,78.97
2018-12-08T15:36:38.483Z,77.50
2018-12-08T15:39:15.435Z,78.93
2018-12-08T15:42:00.343Z,83.13
2018-12-08T15:44:36.726Z,84.87
2018-12-08T15:47:12.529Z,96.37
2018-12-08T15:49:51.997Z,90.27
2018-12-08T15:52:28.235Z,84.40
2018-12-08T15:55:03.928Z,91.53
2018-12-08T15:57:37.813Z,89.57
2018-12-08T16:00:17.747Z,87.70
2018-12-08T16:02:53.988Z,89.90
2018-12-08T16:05:30.447Z,84.10
2018-12-08T16:08:08.816Z,86.37
2018-12-08T16:10:44.493Z,91.27
2018-12-08T16:13:19.348Z,89.03
2018-12-08T16:15:53.581Z,86.57
2018-12-08T16:18:30.613Z,91.53
2018-12-08T16:21:13.202Z,90.17
2018-12-08T16:23:49.714Z,89.07
2018-12-08T16:26:30.679Z,91.63
2018-12-08T16:29:05.689Z,94.30
2018-12-08T16:31:44.027Z,100.13
2018-12-08T16:34:23.491Z,98.50
2018-12-08T16:36:57.558Z,100.83
2018-12-08T16:39:33.560Z,103.03
2018-12-08T16:42:08.731Z,97.60
2018-12-08T16:44:44.696Z,98.57
2018-12-08T16:47:19.876Z,97.07
2018-12-08T16:50:01.038Z,108.63
2018-12-08T16:52:38.290Z,108.90
2018-12-08T16:55:12.569Z,145.27
2018-12-08T16:57:48.299Z,133.40
2018-12-08T17:00:24.984Z,114.37
2018-12-08T17:03:04.707Z,112.33
2018-12-08T17:05:42.747Z,109.07
2018-12-08T17:08:19.716Z,109.70
2018-12-08T17:10:53.652Z,84.60
2018-12-08T17:13:28.753Z,80.73
2018-12-08T17:16:05.365Z,81.73
2018-12-08T17:18:42.871Z,88.20
2018-12-08T17:21:25.025Z,91.37
2018-12-08T17:24:00.780Z,91.67
2018-12-08T17:26:38.128Z,110.43
2018-12-08T17:29:18.910Z,107.17
2018-12-08T17:31:58.079Z,114.00
2018-12-08T17:34:34.580Z,99.13
2018-12-08T17:37:11.402Z,97.30
2018-12-08T17:39:47.626Z,90.70
2018-12-08T17:42:23.802Z,91.37
2018-12-08T17:44:57.411Z,91.57
2018-12-08T17:47:31.058Z,87.30
2018-12-08T17:50:06.265Z,89.37
2018-12-08T17:52:39.704Z,93.53
2018-12-08T17:55:12.604Z,101.83
2018-12-08T17:57:46.405Z,93.13
2018-12-08T18:00:20.144Z,90.20
2018-12-08T18:02:54.625Z,90.43
2018-12-08T18:05:29.123Z,90.00
2018-12-08T18:08:02.664Z,91.83
2018-12-08T18:10:36.703Z,97.07
2018-12-08T18:13:09.825Z,90.43
2018-12-08T18:15:43.991Z,103.47
2018-12-08T18:18:17.120Z,94.23
2018-12-08T18:20:50.291Z,94.33
2018-12-08T18:23:24.216Z,94.57
2018-12-08T18:25:59.546Z,99.43
2018-12-08T18:28:37.596Z,95.17
2018-12-08T18:31:11.635Z,100.37
2018-12-08T18:33:47.308Z,107.40
2018-12-08T18:36:23.018Z,112.80
2018-12-08T18:39:02.724Z,111.43
2018-12-08T18:41:42.764Z,117.60
2018-12-08T18:44:16.021Z,112.10
2018-12-08T18:46:50.181Z,104.80
2018-12-08T18:49:26.839Z,93.63
2018-12-08T18:52:02.312Z,86.07
2018-12-08T18:54:36.003Z,97.33
2018-12-08T18:57:10.034Z,95.60
2018-12-08T18:59:45.345Z,90.30
2018-12-08T19:02:23.123Z,93.30
2018-12-08T19:04:59.360Z,98.83
2018-12-08T19:07:36.600Z,93.30
2018-12-08T19:10:12.058Z,97.40
2018-12-08T19:12:45.408Z,107.83
2018-12-08T19:15:21.205Z,101.20
2018-12-08T19:21:13.289Z,103.80
2018-12-08T19:23:47.795Z,108.50
2018-12-08T19:26:23.244Z,111.77
2018-12-08T19:28:58.450Z,110.00
2018-12-08T19:31:33.435Z,108.57
2018-12-08T19:34:07.146Z,110.23
2018-12-08T19:36:43.169Z,107.17
2018-12-08T19:39:18.838Z,112.90
2018-12-08T19:41:52.413Z,110.93
2018-12-08T19:44:26.639Z,107.03
2018-12-08T19:47:00.448Z,110.10
2018-12-08T19:49:35.352Z,118.53
2018-12-08T19:52:09.652Z,121.43
2018-12-08T19:54:43.281Z,118.13
2018-12-08T19:57:19.458Z,111.67
2018-12-08T19:59:56.696Z,116.83
2018-12-08T20:09:25.331Z,118.23
2018-12-08T20:11:58.883Z,126.30
2018-12-08T20:14:34.899Z,128.17
2018-12-08T20:17:11.713Z,131.17
2018-12-08T20:19:47.043Z,137.10
2018-12-08T20:22:21.465Z,131.30
2018-12-08T20:24:58.653Z,129.10
2018-12-08T20:27:32.792Z,135.57
2018-12-08T20:30:07.613Z,146.60
2018-12-08T20:32:41.012Z,146.30
2018-12-08T20:35:14.420Z,140.93
2018-12-08T20:37:47.391Z,137.27
2018-12-08T20:40:21.219Z,135.73
2018-12-08T20:42:56.008Z,131.93
2018-12-08T20:45:29.607Z,125.37
2018-12-08T20:48:02.531Z,132.87
2018-12-08T20:50:35.627Z,138.43
2018-12-08T20:53:08.308Z,143.53
2018-12-08T20:55:43.427Z,138.33
2018-12-08T20:58:16.781Z,144.10
2018-12-08T21:00:49.339Z,136.10
2018-12-08T21:03:22.399Z,147.43
2018-12-08T21:05:56.485Z,135.10
2018-12-08T21:08:29.918Z,142.20
2018-12-08T21:11:04.492Z,140.50
2018-12-08T21:13:38.103Z,152.10
2018-12-08T21:16:11.997Z,142.80
2018-12-08T21:18:46.334Z,142.90
2018-12-08T21:21:21.509Z,134.33
2018-12-08T21:23:54.602Z,138.87
2018-12-08T21:26:29.281Z,133.67
2018-12-08T21:29:01.884Z,129.87
2018-12-08T21:31:36.550Z,124.23
2018-12-08T21:34:12.352Z,122.33
2018-12-08T21:36:46.346Z,126.93
2018-12-08T21:39:19.893Z,122.77
2018-12-08T21:41:53.973Z,119.27
2018-12-08T21:44:27.885Z,129.97
2018-12-08T21:47:04.305Z,133.30
2018-12-08T21:49:36.956Z,143.13
2018-12-08T21:52:10.618Z,135.23
2018-12-08T21:54:43.464Z,145.20
2018-12-08T21:57:15.659Z,131.83
2018-12-08T21:59:48.355Z,127.70
2018-12-08T22:02:21.496Z,137.53
2018-12-08T22:04:54.268Z,139.50
2018-12-08T22:07:28.128Z,126.00
2018-12-08T22:10:01.279Z,124.80
2018-12-08T22:12:35.445Z,117.53
2018-12-08T22:15:16.077Z,131.43
2018-12-08T22:17:48.925Z,124.73
2018-12-08T22:20:21.532Z,121.53
2018-12-08T22:22:55.070Z,115.73
2018-12-08T22:25:27.511Z,108.17
2018-12-08T22:27:59.918Z,112.43
2018-12-08T22:30:32.644Z,112.10
2018-12-08T22:33:04.987Z,112.93
2018-12-08T22:35:37.205Z,122.20
2018-12-08T22:38:09.227Z,118.97
2018-12-08T22:40:41.511Z,116.63
2018-12-08T22:43:13.917Z,120.53
2018-12-08T22:45:46.116Z,123.00
2018-12-08T22:48:18.886Z,130.63
2018-12-08T22:50:51.571Z,130.50
2018-12-08T22:53:23.644Z,117.47
2018-12-08T22:55:57.049Z,117.13
2018-12-08T22:58:29.304Z,118.73
2018-12-08T23:01:01.537Z,135.63
2018-12-08T23:03:33.991Z,131.33
2018-12-08T23:06:06.335Z,124.40
2018-12-08T23:08:39.721Z,111.37
2018-12-08T23:11:12.280Z,125.10
2018-12-08T23:13:46.180Z,116.43
2018-12-08T23:16:18.494Z,116.07
2018-12-08T23:18:50.662Z,126.23
2018-12-08T23:21:23.250Z,111.07
2018-12-08T23:23:55.497Z,112.43
2018-12-08T23:26:27.488Z,110.67
2018-12-08T23:28:59.559Z,109.83
2018-12-08T23:31:31.717Z,107.10
2018-12-08T23:34:04.196Z,112.10
2018-12-08T23:36:36.616Z,106.77
2018-12-08T23:39:09.542Z,113.57
2018-12-08T23:41:41.679Z,108.77
2018-12-08T23:44:13.812Z,109.30
2018-12-08T23:46:46.131Z,113.57
2018-12-08T23:49:18.227Z,110.90
2018-12-08T23:51:50.062Z,108.83
2018-12-08T23:54:22.044Z,105.83
2018-12-08T23:56:55.830Z,99.70
2018-12-08T23:59:27.849Z,94.47
